Amelia, Nebraska
Current Conditions -  °F | °C
As of 8:55 PM on Thursday 27 Nov 2014 (Local Time) from KONL Reporting Station
Clear Clear  
Wind Chill: -7°   Ceiling: Unl
Heat Index: -1°   Visibility: 10mi
Dew Point: -7°   Wind: 14mph
Humidity: 68%   Direction: 170°S
Pressure: 30"   Gusts: NA
Location:  42.24°N, 98.91°W
Report Text: KONL 280255Z AUTO 17012KT 10SM CLR M01/M07 A3000 RMK AO2 T10131066
Loading
Personal Weather Stations






























Interactive Weather Map New forecast layout! Learn more

10-Day Weather Forecast

Advertisements
Track Severe Weather on mobile